Orbital elements of FENGYUN 1C DEB
| Launched | 9 May 1999 |
| Flight ended | – |
| Launch site | Taiyuan Space Center, PRC |
| Owner | People's Republic of China |
| NORAD ID | 31019 |
| Date fetched |
Epoch osculation |
Inc. [°] |
Ecc. | RA asc node [hr] |
Arg Peri. [°] |
Mean anom [°] |
Mean motion [rev/day] |
Abs. mag |
| Date fetched |
Epoch osculation |
Inc. [°] |
Ecc. | RA asc node [hr] |
Arg Peri. [°] |
Mean anom [°] |
Mean motion [rev/day] |
Abs. mag |
| 2026 May 05 17:57 | 2026 May 04 09:29:35 | 98.7237 | 0.11054 | 18.5868 | 8.3633 | 17.1032 | 11.83300 | – |
| 2026 May 04 17:57 | 2026 Apr 30 10:07:07 | 98.7233 | 0.11056 | 18.4119 | 16.0455 | 17.1032 | 11.83300 | – |
| 2026 May 03 17:57 | 2026 Apr 30 10:07:07 | 98.7233 | 0.11056 | 18.4119 | 16.0455 | 17.1032 | 11.83300 | – |
| 2026 May 02 17:57 | 2026 Apr 30 10:07:07 | 98.7233 | 0.11056 | 18.4119 | 16.0455 | 17.1032 | 11.83300 | – |
| 2026 May 01 17:56 | 2026 Apr 30 10:07:07 | 98.7233 | 0.11056 | 18.4119 | 16.0455 | 17.1032 | 11.83300 | – |
| 2026 Apr 30 17:56 | 2026 Apr 30 10:07:07 | 98.7233 | 0.11056 | 18.4119 | 16.0455 | 17.1032 | 11.83300 | – |
| 2026 Apr 29 17:57 | 2026 Apr 24 10:03:56 | 98.7237 | 0.11060 | 18.1477 | 27.6572 | 17.1032 | 11.83300 | – |
| 2026 Apr 28 17:56 | 2026 Apr 24 10:03:56 | 98.7237 | 0.11060 | 18.1477 | 27.6572 | 17.1032 | 11.83300 | – |
| 2026 Apr 27 17:58 | 2026 Apr 24 10:03:56 | 98.7237 | 0.11060 | 18.1477 | 27.6572 | 17.1032 | 11.83300 | – |
| 2026 Apr 26 17:58 | 2026 Apr 24 10:03:56 | 98.7237 | 0.11060 | 18.1477 | 27.6572 | 17.1032 | 11.83300 | – |
| 2026 Apr 25 17:58 | 2026 Apr 24 10:03:56 | 98.7237 | 0.11060 | 18.1477 | 27.6572 | 17.1032 | 11.83300 | – |
| 2026 Apr 24 17:59 | 2026 Apr 24 10:03:56 | 98.7237 | 0.11060 | 18.1477 | 27.6572 | 17.1032 | 11.83300 | – |
| 2026 Apr 23 17:57 | 2026 Apr 17 09:47:06 | 98.7223 | 0.11066 | 17.8390 | 41.2083 | 17.1032 | 11.83300 | – |
| 2026 Apr 22 17:57 | 2026 Apr 17 09:47:06 | 98.7223 | 0.11066 | 17.8390 | 41.2083 | 17.1032 | 11.83300 | – |
| 2026 Apr 21 17:57 | 2026 Apr 17 09:47:06 | 98.7223 | 0.11066 | 17.8390 | 41.2083 | 17.1032 | 11.83300 | – |
| 2026 Apr 20 17:57 | 2026 Apr 17 09:47:06 | 98.7223 | 0.11066 | 17.8390 | 41.2083 | 17.1032 | 11.83300 | – |
| 2026 Apr 19 17:58 | 2026 Apr 17 09:47:06 | 98.7223 | 0.11066 | 17.8390 | 41.2083 | 17.1032 | 11.83300 | – |
| 2026 Apr 18 17:56 | 2026 Apr 12 09:57:15 | 98.7227 | 0.11070 | 17.6193 | 50.8552 | 17.1032 | 11.83300 | – |
| 2026 Apr 16 17:57 | 2026 Apr 12 09:57:15 | 98.7227 | 0.11070 | 17.6193 | 50.8552 | 17.1032 | 11.83300 | – |
| 2026 Apr 14 17:57 | 2026 Apr 12 09:57:15 | 98.7227 | 0.11070 | 17.6193 | 50.8552 | 17.1032 | 11.83300 | – |
| 2026 Apr 13 17:57 | 2026 Apr 12 09:57:15 | 98.7227 | 0.11070 | 17.6193 | 50.8552 | 17.1032 | 11.83300 | – |
| 2026 Apr 12 17:57 | 2026 Apr 07 10:22:07 | 98.7219 | 0.11076 | 17.4000 | 60.4856 | 17.1032 | 11.83300 | – |
| 2026 Apr 11 17:57 | 2026 Apr 07 10:22:07 | 98.7219 | 0.11076 | 17.4000 | 60.4856 | 17.1032 | 11.83300 | – |
| 2026 Apr 10 17:58 | 2026 Apr 07 10:22:07 | 98.7219 | 0.11076 | 17.4000 | 60.4856 | 17.1032 | 11.83300 | – |
| 2026 Apr 09 18:01 | 2026 Apr 07 10:22:07 | 98.7219 | 0.11076 | 17.4000 | 60.4856 | 17.1032 | 11.83300 | – |
| 2026 Apr 08 17:57 | 2026 Apr 07 10:22:07 | 98.7219 | 0.11076 | 17.4000 | 60.4856 | 17.1032 | 11.83300 | – |